KAHN

Athens / Ben Epps Airport

Athens, Georgia, USA
KAHN 190159Z 1902/1924 00000KT 1SM BR SKC FM190300 00000KT 4SM BR BKN015 FM190600 VRB03KT 3SM BR OVC009 FM190900 10004KT 2SM BR VCSH OVC004 PROB30 1912/1916 1SM -SHRA BR OVC004 FM191600 17010G18KT 4SM -SHRA BR OVC008 FM192100 19011G20KT 5SM -SHRA BR OVC020
Issued Valid From Valid To
Jan-19 @ 01:59 UTC
(49 minutes ago)
Jan-19 @ 02:00 UTC
(48 minutes ago)
Jan-20 @ 00:00 UTC
(in 21 hours)
Jan-19 @ 02:00 to Jan-19 @ 03:00
KAHN 190159Z 1902/1924 00000KT 1SM BR SKC
Visibility Clouds Conditions
1 miles
  • Clear skies
  • Mist
From Jan-19 @ 03:00 to Jan-19 @ 06:00
FM190300 00000KT 4SM BR BKN015
Visibility Clouds Conditions
4 miles
  • Broken at 1,500' AGL
  • Mist
From Jan-19 @ 06:00 to Jan-19 @ 09:00
FM190600 VRB03KT 3SM BR OVC009
Wind Visibility Clouds Conditions
Variable at 3 knots 3 miles
  • Overcast at 900' AGL
  • Mist
From Jan-19 @ 09:00 to Jan-19 @ 16:00
FM190900 10004KT 2SM BR VCSH OVC004
Wind Visibility Clouds Conditions
100° at 4 knots 2 miles
  • Overcast at 400' AGL
  • Mist
Probable  (Probability 30%) Jan-19 @ 12:00 to Jan-19 @ 16:00
PROB30 1912/1916 1SM -SHRA BR OVC004
Visibility Clouds Conditions
1 miles
  • Overcast at 400' AGL
  • Light Rain
  • Mist
From Jan-19 @ 16:00 to Jan-19 @ 21:00
FM191600 17010G18KT 4SM -SHRA BR OVC008
Wind Visibility Clouds Conditions
170° at 10 knots
 Gusting to 18 knots
4 miles
  • Overcast at 800' AGL
  • Light Rain
  • Mist
From Jan-19 @ 21:00 to Jan-20 @ 00:00
FM192100 19011G20KT 5SM -SHRA BR OVC020
Wind Visibility Clouds Conditions
190° at 11 knots
 Gusting to 20 knots
5 miles
  • Overcast at 2,000' AGL
  • Light Rain
  • Mist
KAHN 190159Z 1902/1924 00000KT 1SM BR SKC FM190300 00000KT 4SM BR BKN015 FM190600 VRB03KT 3SM BR OVC009 FM190900 10004KT 2SM BR VCSH OVC004 PROB30 1912/1916 1SM -SHRA BR OVC004 FM191600 17010G18KT 4SM -SHRA BR OVC008 FM192100 19011G20KT 5SM -SHRA BR OVC020
Issued Jan-19 @ 01:59 UTC
(49 minutes ago)
Valid From Jan-19 @ 02:00 UTC
(48 minutes ago)
Valid To Jan-20 @ 00:00 UTC
(in 21 hours)
Jan-19 @ 02:00 - Jan-19 @ 03:00
Clouds
  • Clear skies
Conditions
  • Mist
From Jan-19 @ 03:00 - Jan-19 @ 06:00
Clouds
  • Broken at 1,500' AGL
Conditions
  • Mist
From Jan-19 @ 06:00 - Jan-19 @ 09:00
Wind Visibility
Variable at 3 knots 3 miles
Clouds
  • Overcast at 900' AGL
Conditions
  • Mist
From Jan-19 @ 09:00 - Jan-19 @ 16:00
Wind Visibility
100° at 4 knots 2 miles
Clouds
  • Overcast at 400' AGL
Conditions
  • Mist
Probability 30% Probable Jan-19 @ 12:00 - Jan-19 @ 16:00
Clouds
  • Overcast at 400' AGL
Conditions
  • Light Rain
  • Mist
From Jan-19 @ 16:00 - Jan-19 @ 21:00
Wind Visibility
170° at 10 knots
 Gusting to 18 knots
4 miles
Clouds
  • Overcast at 800' AGL
Conditions
  • Light Rain
  • Mist
From Jan-19 @ 21:00 - Jan-20 @ 00:00
Wind Visibility
190° at 11 knots
 Gusting to 20 knots
5 miles
Clouds
  • Overcast at 2,000' AGL
Conditions
  • Light Rain
  • Mist